PHKO METAR and TAF weather

Enter ICAO airport designator
Station Type Date Time Source
PHKO METAR 2024/04/18 06:53 UTC NOAA

PHKO 180653Z 15005KT 10SM SCT060 25/17 A3004 RMK AO2 SLP170 T02500172


Station Type Date Time Source
PHKO Decoded METAR 2024/04/18 06:53 UTC NOAA

KONA INTERNATIONAL AIRPORT, HI, United States (PHKO) 19-44N 156-03W 27M
Apr 18, 2024 - 02:53 AM EDT / 2024.04.18 0653 UTC
Wind: from the SSE (150 degrees) at 6 MPH (5 KT):0
Visibility: 10 mile(s):0
Sky conditions: partly cloudy
Temperature: 77.0 F (25.0 C)
Dew Point: 63.0 F (17.2 C)
Relative Humidity: 61%
Pressure (altimeter): 30.04 in. Hg (1017 hPa)
ob: PHKO 180653Z 15005KT 10SM SCT060 25/17 A3004 RMK AO2 SLP170 T02500172
cycle: 7

Station Type Date Time Source
PHKO TAF 2024/04/18 06:45 UTC NOAA